sensor_id;sensor_type;location;lat;lon;timestamp;P1;durP1;ratioP1;P2;durP2;ratioP2
351;SDS011;164;50.784;6.496;2023-07-02T00:01:49;7.10;;;5.32;;
351;SDS011;164;50.784;6.496;2023-07-02T00:04:16;6.38;;;4.90;;
351;SDS011;164;50.784;6.496;2023-07-02T00:06:44;6.68;;;5.00;;
351;SDS011;164;50.784;6.496;2023-07-02T00:09:13;6.15;;;4.78;;
351;SDS011;164;50.784;6.496;2023-07-02T00:11:41;6.75;;;4.63;;
351;SDS011;164;50.784;6.496;2023-07-02T00:14:09;7.32;;;4.35;;
351;SDS011;164;50.784;6.496;2023-07-02T00:16:37;10.27;;;6.68;;
351;SDS011;164;50.784;6.496;2023-07-02T00:19:05;8.68;;;5.57;;
351;SDS011;164;50.784;6.496;2023-07-02T00:21:32;9.60;;;5.80;;
351;SDS011;164;50.784;6.496;2023-07-02T00:24:02;8.45;;;5.68;;
351;SDS011;164;50.784;6.496;2023-07-02T00:26:31;11.02;;;6.22;;
351;SDS011;164;50.784;6.496;2023-07-02T00:28:58;8.88;;;7.03;;
351;SDS011;164;50.784;6.496;2023-07-02T00:31:25;7.55;;;6.82;;
351;SDS011;164;50.784;6.496;2023-07-02T00:33:52;10.32;;;7.53;;
351;SDS011;164;50.784;6.496;2023-07-02T00:36:19;8.30;;;6.68;;
351;SDS011;164;50.784;6.496;2023-07-02T00:38:47;8.80;;;7.40;;
351;SDS011;164;50.784;6.496;2023-07-02T00:41:15;9.27;;;7.45;;
351;SDS011;164;50.784;6.496;2023-07-02T00:43:44;8.90;;;7.57;;
351;SDS011;164;50.784;6.496;2023-07-02T00:46:11;12.18;;;8.05;;
351;SDS011;164;50.784;6.496;2023-07-02T00:48:43;9.63;;;7.97;;
351;SDS011;164;50.784;6.496;2023-07-02T00:51:11;15.15;;;9.45;;
351;SDS011;164;50.784;6.496;2023-07-02T00:53:40;11.95;;;9.27;;
351;SDS011;164;50.784;6.496;2023-07-02T00:56:07;13.45;;;9.65;;
351;SDS011;164;50.784;6.496;2023-07-02T00:58:35;12.15;;;9.00;;
351;SDS011;164;50.784;6.496;2023-07-02T01:01:06;12.57;;;9.32;;
351;SDS011;164;50.784;6.496;2023-07-02T01:03:34;14.48;;;10.02;;
351;SDS011;164;50.784;6.496;2023-07-02T01:06:02;15.88;;;10.30;;
351;SDS011;164;50.784;6.496;2023-07-02T01:08:29;16.48;;;9.80;;
351;SDS011;164;50.784;6.496;2023-07-02T01:10:57;15.25;;;10.02;;
351;SDS011;164;50.784;6.496;2023-07-02T01:13:25;17.70;;;10.93;;
351;SDS011;164;50.784;6.496;2023-07-02T01:15:53;14.30;;;10.88;;
351;SDS011;164;50.784;6.496;2023-07-02T01:18:21;15.77;;;12.18;;
351;SDS011;164;50.784;6.496;2023-07-02T01:20:50;16.17;;;10.88;;
351;SDS011;164;50.784;6.496;2023-07-02T01:23:19;11.73;;;9.77;;
351;SDS011;164;50.784;6.496;2023-07-02T01:25:47;18.33;;;11.98;;
351;SDS011;164;50.784;6.496;2023-07-02T01:28:14;15.55;;;10.15;;
351;SDS011;164;50.784;6.496;2023-07-02T01:30:42;13.75;;;10.43;;
351;SDS011;164;50.784;6.496;2023-07-02T01:33:09;13.43;;;10.23;;
351;SDS011;164;50.784;6.496;2023-07-02T01:35:36;14.32;;;10.77;;
351;SDS011;164;50.784;6.496;2023-07-02T01:38:04;14.60;;;10.13;;
351;SDS011;164;50.784;6.496;2023-07-02T01:40:31;16.27;;;12.95;;
351;SDS011;164;50.784;6.496;2023-07-02T01:42:59;15.07;;;11.02;;
351;SDS011;164;50.784;6.496;2023-07-02T01:45:26;13.05;;;11.57;;
351;SDS011;164;50.784;6.496;2023-07-02T01:47:53;14.55;;;11.05;;
351;SDS011;164;50.784;6.496;2023-07-02T01:50:21;15.95;;;10.73;;
351;SDS011;164;50.784;6.496;2023-07-02T01:52:48;12.93;;;10.00;;
351;SDS011;164;50.784;6.496;2023-07-02T01:55:16;17.77;;;12.30;;
351;SDS011;164;50.784;6.496;2023-07-02T01:57:44;19.38;;;11.55;;
351;SDS011;164;50.784;6.496;2023-07-02T02:00:11;16.55;;;11.68;;
351;SDS011;164;50.784;6.496;2023-07-02T02:02:39;16.63;;;11.38;;
351;SDS011;164;50.784;6.496;2023-07-02T02:05:06;17.17;;;11.25;;
351;SDS011;164;50.784;6.496;2023-07-02T02:07:34;16.00;;;11.35;;
351;SDS011;164;50.784;6.496;2023-07-02T02:10:03;15.95;;;10.85;;
351;SDS011;164;50.784;6.496;2023-07-02T02:12:31;16.38;;;11.95;;
351;SDS011;164;50.784;6.496;2023-07-02T02:14:58;15.70;;;12.10;;
351;SDS011;164;50.784;6.496;2023-07-02T02:17:26;14.85;;;11.93;;
351;SDS011;164;50.784;6.496;2023-07-02T02:19:53;15.48;;;12.05;;
351;SDS011;164;50.784;6.496;2023-07-02T02:22:20;16.77;;;12.65;;
351;SDS011;164;50.784;6.496;2023-07-02T02:24:47;14.57;;;12.43;;
351;SDS011;164;50.784;6.496;2023-07-02T02:27:14;16.25;;;13.20;;
351;SDS011;164;50.784;6.496;2023-07-02T02:29:43;18.40;;;13.35;;
351;SDS011;164;50.784;6.496;2023-07-02T02:32:10;18.90;;;12.55;;
351;SDS011;164;50.784;6.496;2023-07-02T02:34:39;18.98;;;12.75;;
351;SDS011;164;50.784;6.496;2023-07-02T02:37:07;16.88;;;12.20;;
351;SDS011;164;50.784;6.496;2023-07-02T02:39:34;18.25;;;12.73;;
351;SDS011;164;50.784;6.496;2023-07-02T02:42:01;18.27;;;14.40;;
351;SDS011;164;50.784;6.496;2023-07-02T02:44:29;17.48;;;14.23;;
351;SDS011;164;50.784;6.496;2023-07-02T02:46:58;18.77;;;13.60;;
351;SDS011;164;50.784;6.496;2023-07-02T02:49:27;20.52;;;14.50;;
351;SDS011;164;50.784;6.496;2023-07-02T02:51:54;21.75;;;14.18;;
351;SDS011;164;50.784;6.496;2023-07-02T02:54:21;19.70;;;13.85;;
351;SDS011;164;50.784;6.496;2023-07-02T02:56:48;16.52;;;12.43;;
351;SDS011;164;50.784;6.496;2023-07-02T02:59:16;17.73;;;13.60;;
351;SDS011;164;50.784;6.496;2023-07-02T03:01:43;19.80;;;14.02;;
351;SDS011;164;50.784;6.496;2023-07-02T03:04:11;21.25;;;13.60;;
351;SDS011;164;50.784;6.496;2023-07-02T03:06:39;18.98;;;14.38;;
351;SDS011;164;50.784;6.496;2023-07-02T03:09:06;19.02;;;15.02;;
351;SDS011;164;50.784;6.496;2023-07-02T03:11:33;20.40;;;15.07;;
351;SDS011;164;50.784;6.496;2023-07-02T03:14:00;18.88;;;14.00;;
351;SDS011;164;50.784;6.496;2023-07-02T03:16:28;20.45;;;15.48;;
351;SDS011;164;50.784;6.496;2023-07-02T03:18:55;16.65;;;13.23;;
351;SDS011;164;50.784;6.496;2023-07-02T03:21:23;21.48;;;15.30;;
351;SDS011;164;50.784;6.496;2023-07-02T03:23:50;23.00;;;14.55;;
351;SDS011;164;50.784;6.496;2023-07-02T03:26:18;17.58;;;14.73;;
351;SDS011;164;50.784;6.496;2023-07-02T03:28:45;20.55;;;16.08;;
351;SDS011;164;50.784;6.496;2023-07-02T03:31:12;29.02;;;17.13;;
351;SDS011;164;50.784;6.496;2023-07-02T03:33:40;20.10;;;16.20;;
351;SDS011;164;50.784;6.496;2023-07-02T03:36:07;23.20;;;16.88;;
351;SDS011;164;50.784;6.496;2023-07-02T03:38:35;24.25;;;16.48;;
351;SDS011;164;50.784;6.496;2023-07-02T03:41:02;22.17;;;15.38;;
351;SDS011;164;50.784;6.496;2023-07-02T03:43:30;23.55;;;16.67;;
351;SDS011;164;50.784;6.496;2023-07-02T03:45:57;22.13;;;17.42;;
351;SDS011;164;50.784;6.496;2023-07-02T03:48:24;28.95;;;15.98;;
351;SDS011;164;50.784;6.496;2023-07-02T03:50:51;22.90;;;16.48;;
351;SDS011;164;50.784;6.496;2023-07-02T03:53:19;26.35;;;18.55;;
351;SDS011;164;50.784;6.496;2023-07-02T03:55:47;19.45;;;17.05;;
351;SDS011;164;50.784;6.496;2023-07-02T03:58:14;26.25;;;18.23;;
351;SDS011;164;50.784;6.496;2023-07-02T04:00:42;20.05;;;15.57;;
351;SDS011;164;50.784;6.496;2023-07-02T04:03:09;22.00;;;17.08;;
351;SDS011;164;50.784;6.496;2023-07-02T04:05:36;21.17;;;17.55;;
351;SDS011;164;50.784;6.496;2023-07-02T04:08:03;25.17;;;17.00;;
351;SDS011;164;50.784;6.496;2023-07-02T04:10:31;23.17;;;18.48;;
351;SDS011;164;50.784;6.496;2023-07-02T04:12:59;22.45;;;18.75;;
351;SDS011;164;50.784;6.496;2023-07-02T04:15:26;19.88;;;16.42;;
351;SDS011;164;50.784;6.496;2023-07-02T04:17:53;25.02;;;18.02;;
351;SDS011;164;50.784;6.496;2023-07-02T04:20:21;26.27;;;18.60;;
351;SDS011;164;50.784;6.496;2023-07-02T04:22:48;26.13;;;17.85;;
351;SDS011;164;50.784;6.496;2023-07-02T04:25:15;26.35;;;20.05;;
351;SDS011;164;50.784;6.496;2023-07-02T04:27:42;27.17;;;19.17;;
351;SDS011;164;50.784;6.496;2023-07-02T04:30:11;28.13;;;19.65;;
351;SDS011;164;50.784;6.496;2023-07-02T04:32:39;27.35;;;18.35;;
351;SDS011;164;50.784;6.496;2023-07-02T04:35:07;30.30;;;20.60;;
351;SDS011;164;50.784;6.496;2023-07-02T04:37:34;22.10;;;17.83;;
351;SDS011;164;50.784;6.496;2023-07-02T04:40:01;26.77;;;19.67;;
351;SDS011;164;50.784;6.496;2023-07-02T04:42:32;22.00;;;17.75;;
351;SDS011;164;50.784;6.496;2023-07-02T04:45:02;25.83;;;20.17;;
351;SDS011;164;50.784;6.496;2023-07-02T05:06:09;27.17;;;20.45;;
351;SDS011;164;50.784;6.496;2023-07-02T05:08:36;33.30;;;20.88;;
351;SDS011;164;50.784;6.496;2023-07-02T05:11:03;24.30;;;20.50;;
351;SDS011;164;50.784;6.496;2023-07-02T05:13:31;34.80;;;21.13;;
351;SDS011;164;50.784;6.496;2023-07-02T05:15:58;28.13;;;19.80;;
351;SDS011;164;50.784;6.496;2023-07-02T05:18:25;29.10;;;21.10;;
351;SDS011;164;50.784;6.496;2023-07-02T05:20:53;29.35;;;20.67;;
351;SDS011;164;50.784;6.496;2023-07-02T05:23:22;26.50;;;21.98;;
351;SDS011;164;50.784;6.496;2023-07-02T05:25:49;32.35;;;20.88;;
351;SDS011;164;50.784;6.496;2023-07-02T05:28:16;34.10;;;20.70;;
351;SDS011;164;50.784;6.496;2023-07-02T05:30:43;27.50;;;19.75;;
351;SDS011;164;50.784;6.496;2023-07-02T05:33:11;26.48;;;20.55;;
351;SDS011;164;50.784;6.496;2023-07-02T05:35:38;30.52;;;21.70;;
351;SDS011;164;50.784;6.496;2023-07-02T05:38:05;26.60;;;19.30;;
351;SDS011;164;50.784;6.496;2023-07-02T05:40:34;22.90;;;19.15;;
351;SDS011;164;50.784;6.496;2023-07-02T05:43:01;25.35;;;18.98;;
351;SDS011;164;50.784;6.496;2023-07-02T05:45:29;29.38;;;22.35;;
351;SDS011;164;50.784;6.496;2023-07-02T05:47:56;28.73;;;20.13;;
351;SDS011;164;50.784;6.496;2023-07-02T05:50:24;29.65;;;20.05;;
351;SDS011;164;50.784;6.496;2023-07-02T05:52:51;35.40;;;21.02;;
351;SDS011;164;50.784;6.496;2023-07-02T05:55:18;30.15;;;20.92;;
351;SDS011;164;50.784;6.496;2023-07-02T05:57:47;28.55;;;21.77;;
351;SDS011;164;50.784;6.496;2023-07-02T06:00:14;29.23;;;21.60;;
351;SDS011;164;50.784;6.496;2023-07-02T06:02:42;27.13;;;22.83;;
351;SDS011;164;50.784;6.496;2023-07-02T06:05:09;25.92;;;20.13;;
351;SDS011;164;50.784;6.496;2023-07-02T06:07:36;25.92;;;20.05;;
351;SDS011;164;50.784;6.496;2023-07-02T06:10:04;27.05;;;20.25;;
351;SDS011;164;50.784;6.496;2023-07-02T06:12:31;27.70;;;20.23;;
351;SDS011;164;50.784;6.496;2023-07-02T06:14:59;26.88;;;21.63;;
351;SDS011;164;50.784;6.496;2023-07-02T06:17:27;31.27;;;22.00;;
351;SDS011;164;50.784;6.496;2023-07-02T06:19:55;26.98;;;20.55;;
351;SDS011;164;50.784;6.496;2023-07-02T06:22:23;28.73;;;23.17;;
351;SDS011;164;50.784;6.496;2023-07-02T06:24:50;27.80;;;21.98;;
351;SDS011;164;50.784;6.496;2023-07-02T06:27:17;29.45;;;21.20;;
351;SDS011;164;50.784;6.496;2023-07-02T06:29:45;23.90;;;20.95;;
351;SDS011;164;50.784;6.496;2023-07-02T06:32:13;28.40;;;21.63;;
351;SDS011;164;50.784;6.496;2023-07-02T06:34:41;32.15;;;21.83;;
351;SDS011;164;50.784;6.496;2023-07-02T06:37:08;27.42;;;20.17;;
351;SDS011;164;50.784;6.496;2023-07-02T06:39:35;24.60;;;20.30;;
351;SDS011;164;50.784;6.496;2023-07-02T06:42:03;28.10;;;20.25;;
351;SDS011;164;50.784;6.496;2023-07-02T06:44:30;27.75;;;20.80;;
351;SDS011;164;50.784;6.496;2023-07-02T06:46:57;32.05;;;20.48;;
351;SDS011;164;50.784;6.496;2023-07-02T06:49:26;27.83;;;21.58;;
351;SDS011;164;50.784;6.496;2023-07-02T06:51:53;25.92;;;21.42;;
351;SDS011;164;50.784;6.496;2023-07-02T06:54:20;27.55;;;21.60;;
351;SDS011;164;50.784;6.496;2023-07-02T06:56:47;28.45;;;21.27;;
351;SDS011;164;50.784;6.496;2023-07-02T06:59:18;26.35;;;19.30;;
351;SDS011;164;50.784;6.496;2023-07-02T07:01:45;25.73;;;18.92;;
351;SDS011;164;50.784;6.496;2023-07-02T07:04:13;26.88;;;18.27;;
351;SDS011;164;50.784;6.496;2023-07-02T07:06:41;23.45;;;18.80;;
351;SDS011;164;50.784;6.496;2023-07-02T07:09:08;23.90;;;18.27;;
351;SDS011;164;50.784;6.496;2023-07-02T07:11:36;26.52;;;20.05;;
351;SDS011;164;50.784;6.496;2023-07-02T07:14:03;28.88;;;19.17;;
351;SDS011;164;50.784;6.496;2023-07-02T07:16:30;27.85;;;19.38;;
351;SDS011;164;50.784;6.496;2023-07-02T07:18:57;29.90;;;20.55;;
351;SDS011;164;50.784;6.496;2023-07-02T07:21:25;26.60;;;18.83;;
351;SDS011;164;50.784;6.496;2023-07-02T07:23:53;22.63;;;16.35;;
351;SDS011;164;50.784;6.496;2023-07-02T07:26:20;24.50;;;18.85;;
351;SDS011;164;50.784;6.496;2023-07-02T07:28:50;22.48;;;17.65;;
351;SDS011;164;50.784;6.496;2023-07-02T07:31:19;24.73;;;18.58;;
351;SDS011;164;50.784;6.496;2023-07-02T07:33:46;23.48;;;17.92;;
351;SDS011;164;50.784;6.496;2023-07-02T07:36:14;27.98;;;19.15;;
351;SDS011;164;50.784;6.496;2023-07-02T07:38:42;28.63;;;19.60;;
351;SDS011;164;50.784;6.496;2023-07-02T07:41:11;29.55;;;17.95;;
351;SDS011;164;50.784;6.496;2023-07-02T07:43:38;25.63;;;17.83;;
351;SDS011;164;50.784;6.496;2023-07-02T07:46:06;25.23;;;17.85;;
351;SDS011;164;50.784;6.496;2023-07-02T07:48:33;28.20;;;17.50;;
351;SDS011;164;50.784;6.496;2023-07-02T07:51:00;22.15;;;18.00;;
351;SDS011;164;50.784;6.496;2023-07-02T07:53:27;20.55;;;16.80;;
351;SDS011;164;50.784;6.496;2023-07-02T07:55:55;28.48;;;19.42;;
351;SDS011;164;50.784;6.496;2023-07-02T07:58:24;32.10;;;19.67;;
351;SDS011;164;50.784;6.496;2023-07-02T08:00:51;23.30;;;19.02;;
351;SDS011;164;50.784;6.496;2023-07-02T08:03:19;26.35;;;18.45;;
351;SDS011;164;50.784;6.496;2023-07-02T08:05:46;22.08;;;18.23;;
351;SDS011;164;50.784;6.496;2023-07-02T08:08:13;24.13;;;18.55;;
351;SDS011;164;50.784;6.496;2023-07-02T08:10:40;22.90;;;18.15;;
351;SDS011;164;50.784;6.496;2023-07-02T08:13:08;19.75;;;16.90;;
351;SDS011;164;50.784;6.496;2023-07-02T08:15:37;23.27;;;17.73;;
351;SDS011;164;50.784;6.496;2023-07-02T08:18:04;23.08;;;16.63;;
351;SDS011;164;50.784;6.496;2023-07-02T08:20:32;25.77;;;19.17;;
351;SDS011;164;50.784;6.496;2023-07-02T08:23:00;21.70;;;16.23;;
351;SDS011;164;50.784;6.496;2023-07-02T08:25:27;21.88;;;16.25;;
351;SDS011;164;50.784;6.496;2023-07-02T08:27:54;21.15;;;16.27;;
351;SDS011;164;50.784;6.496;2023-07-02T08:30:21;24.15;;;16.60;;
351;SDS011;164;50.784;6.496;2023-07-02T08:32:50;32.17;;;17.65;;
351;SDS011;164;50.784;6.496;2023-07-02T08:35:19;27.90;;;17.65;;
351;SDS011;164;50.784;6.496;2023-07-02T08:37:46;28.15;;;18.63;;
351;SDS011;164;50.784;6.496;2023-07-02T08:40:19;25.25;;;18.08;;
351;SDS011;164;50.784;6.496;2023-07-02T08:42:46;23.70;;;16.95;;
351;SDS011;164;50.784;6.496;2023-07-02T08:45:14;20.02;;;16.40;;
351;SDS011;164;50.784;6.496;2023-07-02T08:47:42;22.77;;;17.75;;
351;SDS011;164;50.784;6.496;2023-07-02T08:50:11;22.58;;;16.80;;
351;SDS011;164;50.784;6.496;2023-07-02T08:52:38;22.15;;;16.80;;
351;SDS011;164;50.784;6.496;2023-07-02T08:55:06;24.02;;;17.55;;
351;SDS011;164;50.784;6.496;2023-07-02T08:57:34;22.42;;;16.70;;
351;SDS011;164;50.784;6.496;2023-07-02T09:00:03;22.67;;;16.30;;
351;SDS011;164;50.784;6.496;2023-07-02T09:02:32;18.83;;;14.90;;
351;SDS011;164;50.784;6.496;2023-07-02T09:04:59;24.55;;;15.10;;
351;SDS011;164;50.784;6.496;2023-07-02T09:07:28;16.48;;;14.20;;
351;SDS011;164;50.784;6.496;2023-07-02T09:09:55;22.05;;;14.43;;
351;SDS011;164;50.784;6.496;2023-07-02T09:12:23;24.80;;;15.68;;
351;SDS011;164;50.784;6.496;2023-07-02T09:14:55;19.45;;;15.00;;
351;SDS011;164;50.784;6.496;2023-07-02T09:17:26;17.63;;;13.60;;
351;SDS011;164;50.784;6.496;2023-07-02T09:19:54;24.08;;;15.88;;
351;SDS011;164;50.784;6.496;2023-07-02T09:22:21;19.65;;;13.70;;
351;SDS011;164;50.784;6.496;2023-07-02T09:24:53;21.90;;;15.27;;
351;SDS011;164;50.784;6.496;2023-07-02T09:27:32;19.10;;;15.02;;
351;SDS011;164;50.784;6.496;2023-07-02T09:30:05;19.48;;;15.65;;
351;SDS011;164;50.784;6.496;2023-07-02T09:32:33;20.83;;;15.25;;
351;SDS011;164;50.784;6.496;2023-07-02T09:35:00;21.40;;;14.05;;
351;SDS011;164;50.784;6.496;2023-07-02T09:37:27;20.27;;;15.73;;
351;SDS011;164;50.784;6.496;2023-07-02T09:39:57;23.35;;;16.17;;
351;SDS011;164;50.784;6.496;2023-07-02T09:42:25;20.42;;;15.73;;
351;SDS011;164;50.784;6.496;2023-07-02T09:44:52;22.75;;;16.60;;
351;SDS011;164;50.784;6.496;2023-07-02T09:47:21;20.10;;;16.17;;
351;SDS011;164;50.784;6.496;2023-07-02T09:49:49;21.92;;;16.45;;
351;SDS011;164;50.784;6.496;2023-07-02T09:52:17;24.70;;;15.63;;
351;SDS011;164;50.784;6.496;2023-07-02T09:54:44;21.77;;;14.52;;
351;SDS011;164;50.784;6.496;2023-07-02T09:57:13;19.98;;;15.48;;
351;SDS011;164;50.784;6.496;2023-07-02T09:59:40;20.13;;;15.80;;
351;SDS011;164;50.784;6.496;2023-07-02T10:02:08;23.30;;;15.15;;
351;SDS011;164;50.784;6.496;2023-07-02T10:04:39;22.38;;;16.05;;
351;SDS011;164;50.784;6.496;2023-07-02T10:07:06;21.38;;;15.63;;
351;SDS011;164;50.784;6.496;2023-07-02T10:09:34;20.73;;;15.07;;
351;SDS011;164;50.784;6.496;2023-07-02T10:12:02;21.88;;;15.73;;
351;SDS011;164;50.784;6.496;2023-07-02T10:14:43;22.90;;;14.65;;
351;SDS011;164;50.784;6.496;2023-07-02T10:17:10;19.23;;;14.00;;
351;SDS011;164;50.784;6.496;2023-07-02T10:19:49;20.35;;;15.40;;
351;SDS011;164;50.784;6.496;2023-07-02T10:22:16;22.80;;;14.23;;
351;SDS011;164;50.784;6.496;2023-07-02T10:24:50;17.52;;;12.82;;
351;SDS011;164;50.784;6.496;2023-07-02T10:27:18;17.73;;;13.65;;
351;SDS011;164;50.784;6.496;2023-07-02T10:29:50;17.52;;;12.90;;
351;SDS011;164;50.784;6.496;2023-07-02T10:32:25;17.15;;;12.60;;
351;SDS011;164;50.784;6.496;2023-07-02T10:34:54;15.98;;;12.10;;
351;SDS011;164;50.784;6.496;2023-07-02T10:37:21;18.05;;;12.32;;
351;SDS011;164;50.784;6.496;2023-07-02T10:39:48;21.25;;;14.02;;
351;SDS011;164;50.784;6.496;2023-07-02T10:42:17;17.15;;;12.30;;
351;SDS011;164;50.784;6.496;2023-07-02T10:44:49;18.50;;;13.55;;
351;SDS011;164;50.784;6.496;2023-07-02T10:47:18;18.55;;;11.63;;
351;SDS011;164;50.784;6.496;2023-07-02T10:49:45;17.67;;;13.50;;
351;SDS011;164;50.784;6.496;2023-07-02T10:52:12;17.02;;;12.18;;
351;SDS011;164;50.784;6.496;2023-07-02T10:54:40;16.33;;;12.70;;
351;SDS011;164;50.784;6.496;2023-07-02T10:57:07;19.02;;;13.05;;
351;SDS011;164;50.784;6.496;2023-07-02T10:59:34;18.90;;;13.23;;
351;SDS011;164;50.784;6.496;2023-07-02T11:02:01;20.33;;;12.90;;
351;SDS011;164;50.784;6.496;2023-07-02T11:04:30;20.80;;;12.85;;
351;SDS011;164;50.784;6.496;2023-07-02T11:06:57;17.45;;;12.95;;
351;SDS011;164;50.784;6.496;2023-07-02T11:09:24;17.05;;;12.35;;
351;SDS011;164;50.784;6.496;2023-07-02T11:11:53;14.00;;;11.48;;
351;SDS011;164;50.784;6.496;2023-07-02T11:14:27;18.30;;;13.27;;
351;SDS011;164;50.784;6.496;2023-07-02T11:16:54;23.80;;;15.07;;
351;SDS011;164;50.784;6.496;2023-07-02T11:19:22;19.38;;;13.35;;
351;SDS011;164;50.784;6.496;2023-07-02T11:21:54;20.17;;;12.65;;
351;SDS011;164;50.784;6.496;2023-07-02T11:24:26;14.88;;;11.63;;
351;SDS011;164;50.784;6.496;2023-07-02T11:26:54;20.65;;;13.05;;
351;SDS011;164;50.784;6.496;2023-07-02T11:29:22;20.95;;;12.73;;
351;SDS011;164;50.784;6.496;2023-07-02T11:31:49;16.88;;;13.05;;
351;SDS011;164;50.784;6.496;2023-07-02T11:34:17;21.60;;;13.50;;
351;SDS011;164;50.784;6.496;2023-07-02T11:36:44;16.95;;;12.90;;
351;SDS011;164;50.784;6.496;2023-07-02T11:39:13;16.85;;;12.40;;
351;SDS011;164;50.784;6.496;2023-07-02T11:41:42;16.38;;;12.40;;
351;SDS011;164;50.784;6.496;2023-07-02T11:44:09;15.70;;;11.95;;
351;SDS011;164;50.784;6.496;2023-07-02T11:46:36;19.90;;;12.70;;
351;SDS011;164;50.784;6.496;2023-07-02T11:49:04;18.42;;;12.23;;
351;SDS011;164;50.784;6.496;2023-07-02T11:51:33;15.57;;;11.63;;
351;SDS011;164;50.784;6.496;2023-07-02T11:54:00;18.42;;;11.65;;
351;SDS011;164;50.784;6.496;2023-07-02T11:56:29;17.20;;;12.63;;
351;SDS011;164;50.784;6.496;2023-07-02T11:58:56;19.48;;;12.52;;
351;SDS011;164;50.784;6.496;2023-07-02T12:01:23;21.83;;;12.65;;
351;SDS011;164;50.784;6.496;2023-07-02T12:03:51;16.13;;;12.10;;
351;SDS011;164;50.784;6.496;2023-07-02T12:06:18;18.25;;;11.77;;
351;SDS011;164;50.784;6.496;2023-07-02T12:08:45;17.70;;;11.15;;
351;SDS011;164;50.784;6.496;2023-07-02T12:11:12;19.05;;;12.32;;
351;SDS011;164;50.784;6.496;2023-07-02T12:13:43;16.08;;;12.85;;
351;SDS011;164;50.784;6.496;2023-07-02T12:16:10;16.40;;;11.57;;
351;SDS011;164;50.784;6.496;2023-07-02T12:18:37;17.30;;;11.48;;
351;SDS011;164;50.784;6.496;2023-07-02T12:21:05;17.30;;;11.43;;
351;SDS011;164;50.784;6.496;2023-07-02T12:23:32;19.20;;;13.05;;
351;SDS011;164;50.784;6.496;2023-07-02T12:25:59;18.27;;;12.00;;
351;SDS011;164;50.784;6.496;2023-07-02T12:28:26;16.85;;;11.50;;
351;SDS011;164;50.784;6.496;2023-07-02T12:30:55;15.50;;;11.93;;
351;SDS011;164;50.784;6.496;2023-07-02T12:33:22;22.77;;;12.82;;
351;SDS011;164;50.784;6.496;2023-07-02T12:35:49;19.15;;;12.85;;
351;SDS011;164;50.784;6.496;2023-07-02T12:38:16;20.55;;;13.45;;
351;SDS011;164;50.784;6.496;2023-07-02T12:40:44;18.83;;;13.70;;
351;SDS011;164;50.784;6.496;2023-07-02T12:43:11;17.20;;;12.32;;
351;SDS011;164;50.784;6.496;2023-07-02T12:45:38;20.45;;;14.52;;
351;SDS011;164;50.784;6.496;2023-07-02T12:48:07;15.77;;;12.45;;
351;SDS011;164;50.784;6.496;2023-07-02T12:50:36;18.48;;;13.15;;
351;SDS011;164;50.784;6.496;2023-07-02T12:53:03;16.70;;;11.88;;
351;SDS011;164;50.784;6.496;2023-07-02T12:55:31;14.60;;;10.52;;
351;SDS011;164;50.784;6.496;2023-07-02T12:57:58;20.33;;;11.57;;
351;SDS011;164;50.784;6.496;2023-07-02T13:00:25;17.80;;;11.45;;
351;SDS011;164;50.784;6.496;2023-07-02T13:02:52;14.13;;;10.63;;
351;SDS011;164;50.784;6.496;2023-07-02T13:05:21;20.10;;;11.75;;
351;SDS011;164;50.784;6.496;2023-07-02T13:07:48;15.82;;;11.50;;
351;SDS011;164;50.784;6.496;2023-07-02T13:10:15;17.83;;;11.77;;
351;SDS011;164;50.784;6.496;2023-07-02T13:12:43;15.85;;;11.05;;
351;SDS011;164;50.784;6.496;2023-07-02T13:15:10;15.23;;;11.15;;
351;SDS011;164;50.784;6.496;2023-07-02T13:17:37;15.20;;;11.85;;
351;SDS011;164;50.784;6.496;2023-07-02T13:20:07;21.77;;;11.93;;
351;SDS011;164;50.784;6.496;2023-07-02T13:22:35;18.50;;;10.80;;
351;SDS011;164;50.784;6.496;2023-07-02T13:25:03;17.30;;;11.05;;
351;SDS011;164;50.784;6.496;2023-07-02T13:27:30;14.63;;;10.75;;
351;SDS011;164;50.784;6.496;2023-07-02T13:29:58;16.10;;;12.77;;
351;SDS011;164;50.784;6.496;2023-07-02T13:32:25;15.18;;;11.85;;
351;SDS011;164;50.784;6.496;2023-07-02T13:34:52;21.05;;;12.80;;
351;SDS011;164;50.784;6.496;2023-07-02T13:37:20;18.33;;;12.05;;
351;SDS011;164;50.784;6.496;2023-07-02T13:39:49;21.90;;;12.52;;
351;SDS011;164;50.784;6.496;2023-07-02T13:42:16;14.77;;;10.90;;
351;SDS011;164;50.784;6.496;2023-07-02T13:44:43;16.33;;;12.32;;
351;SDS011;164;50.784;6.496;2023-07-02T13:47:11;15.80;;;11.27;;
351;SDS011;164;50.784;6.496;2023-07-02T13:49:38;17.15;;;11.55;;
351;SDS011;164;50.784;6.496;2023-07-02T13:52:05;16.67;;;11.82;;
351;SDS011;164;50.784;6.496;2023-07-02T13:54:33;14.30;;;10.90;;
351;SDS011;164;50.784;6.496;2023-07-02T13:57:02;15.20;;;11.43;;
351;SDS011;164;50.784;6.496;2023-07-02T13:59:31;17.70;;;10.85;;
351;SDS011;164;50.784;6.496;2023-07-02T14:01:58;13.60;;;10.15;;
351;SDS011;164;50.784;6.496;2023-07-02T14:04:25;14.13;;;11.40;;
351;SDS011;164;50.784;6.496;2023-07-02T14:06:52;14.38;;;12.05;;
351;SDS011;164;50.784;6.496;2023-07-02T14:09:20;12.50;;;10.25;;
351;SDS011;164;50.784;6.496;2023-07-02T14:11:47;14.52;;;11.90;;
351;SDS011;164;50.784;6.496;2023-07-02T14:14:14;16.98;;;11.15;;
351;SDS011;164;50.784;6.496;2023-07-02T14:16:43;12.52;;;10.65;;
351;SDS011;164;50.784;6.496;2023-07-02T14:19:10;14.65;;;10.80;;
351;SDS011;164;50.784;6.496;2023-07-02T14:21:38;14.70;;;10.98;;
351;SDS011;164;50.784;6.496;2023-07-02T14:24:05;13.20;;;10.00;;
351;SDS011;164;50.784;6.496;2023-07-02T14:26:32;17.40;;;11.98;;
351;SDS011;164;50.784;6.496;2023-07-02T14:28:59;16.25;;;10.88;;
351;SDS011;164;50.784;6.496;2023-07-02T14:31:28;16.20;;;11.50;;
351;SDS011;164;50.784;6.496;2023-07-02T14:33:57;14.38;;;10.50;;
351;SDS011;164;50.784;6.496;2023-07-02T14:36:24;18.10;;;12.07;;
351;SDS011;164;50.784;6.496;2023-07-02T14:38:51;15.10;;;10.57;;
351;SDS011;164;50.784;6.496;2023-07-02T14:41:18;15.80;;;11.98;;
351;SDS011;164;50.784;6.496;2023-07-02T14:43:46;14.45;;;10.63;;
351;SDS011;164;50.784;6.496;2023-07-02T14:46:13;15.23;;;10.77;;
351;SDS011;164;50.784;6.496;2023-07-02T14:48:40;14.20;;;10.25;;
351;SDS011;164;50.784;6.496;2023-07-02T14:51:08;15.02;;;10.27;;
351;SDS011;164;50.784;6.496;2023-07-02T14:53:36;12.27;;;10.25;;
351;SDS011;164;50.784;6.496;2023-07-02T14:56:03;15.05;;;10.60;;
351;SDS011;164;50.784;6.496;2023-07-02T14:58:31;12.95;;;11.00;;
351;SDS011;164;50.784;6.496;2023-07-02T15:00:58;16.88;;;11.68;;
351;SDS011;164;50.784;6.496;2023-07-02T15:03:26;16.33;;;10.82;;
351;SDS011;164;50.784;6.496;2023-07-02T15:05:54;15.70;;;10.67;;
351;SDS011;164;50.784;6.496;2023-07-02T15:08:22;16.10;;;10.90;;
351;SDS011;164;50.784;6.496;2023-07-02T15:10:50;15.63;;;12.57;;
351;SDS011;164;50.784;6.496;2023-07-02T15:13:18;15.00;;;10.10;;
351;SDS011;164;50.784;6.496;2023-07-02T15:15:48;17.30;;;10.82;;
351;SDS011;164;50.784;6.496;2023-07-02T15:18:15;14.32;;;10.48;;
351;SDS011;164;50.784;6.496;2023-07-02T15:20:42;14.45;;;10.70;;
351;SDS011;164;50.784;6.496;2023-07-02T15:23:11;19.40;;;11.25;;
351;SDS011;164;50.784;6.496;2023-07-02T15:25:39;18.38;;;12.32;;
351;SDS011;164;50.784;6.496;2023-07-02T15:28:06;14.82;;;10.35;;
351;SDS011;164;50.784;6.496;2023-07-02T15:30:37;14.40;;;10.85;;
351;SDS011;164;50.784;6.496;2023-07-02T15:33:04;14.48;;;11.27;;
351;SDS011;164;50.784;6.496;2023-07-02T15:35:31;16.73;;;11.07;;
351;SDS011;164;50.784;6.496;2023-07-02T15:37:59;14.90;;;10.68;;
351;SDS011;164;50.784;6.496;2023-07-02T15:40:26;13.93;;;10.23;;